Alagoa Grande, Brazil
Current Conditions -  °F | °C
As of 5:00 AM on Sunday 21 Dec 2014 (Local Time) from SBKG Reporting Station
Broken Clouds Broken Clouds  
Wind Chill: 70°   Ceiling: 1500
Heat Index: 70°   Visibility: 4mi
Dew Point: 68°   Wind: 5mph
Humidity: 94%   Direction: 90°E
Pressure: 30"   Gusts: NA
Location:  7.16°S, 35.63°W
Report Text: SBKG 210800Z 09004KT 6000 SCT010 BKN015 21/20 Q1016
Loading
Personal Weather Stations






























Interactive Weather Map New forecast layout! Learn more

10-Day Weather Forecast

Advertisements
Track Severe Weather on mobile